sensor_id;sensor_type;location;lat;lon;timestamp;P1;durP1;ratioP1;P2;durP2;ratioP2
20945;SDS011;10632;51.276;7.116;2023-04-15T00:00:35;5.35;;;1.40;;
20945;SDS011;10632;51.276;7.116;2023-04-15T00:03:02;3.95;;;1.33;;
20945;SDS011;10632;51.276;7.116;2023-04-15T00:05:30;5.18;;;1.80;;
20945;SDS011;10632;51.276;7.116;2023-04-15T00:07:57;7.28;;;1.42;;
20945;SDS011;10632;51.276;7.116;2023-04-15T00:10:24;7.00;;;2.05;;
20945;SDS011;10632;51.276;7.116;2023-04-15T00:12:52;3.67;;;1.35;;
20945;SDS011;10632;51.276;7.116;2023-04-15T00:15:19;7.30;;;2.15;;
20945;SDS011;10632;51.276;7.116;2023-04-15T00:17:49;9.90;;;1.95;;
20945;SDS011;10632;51.276;7.116;2023-04-15T00:20:16;4.22;;;1.58;;
20945;SDS011;10632;51.276;7.116;2023-04-15T00:22:43;4.80;;;1.58;;
20945;SDS011;10632;51.276;7.116;2023-04-15T00:25:10;4.40;;;1.65;;
20945;SDS011;10632;51.276;7.116;2023-04-15T00:27:37;5.82;;;1.50;;
20945;SDS011;10632;51.276;7.116;2023-04-15T00:30:06;6.80;;;1.92;;
20945;SDS011;10632;51.276;7.116;2023-04-15T00:32:33;5.80;;;1.80;;
20945;SDS011;10632;51.276;7.116;2023-04-15T00:35:03;5.43;;;1.83;;
20945;SDS011;10632;51.276;7.116;2023-04-15T00:37:30;6.13;;;2.00;;
20945;SDS011;10632;51.276;7.116;2023-04-15T00:39:59;3.38;;;1.63;;
20945;SDS011;10632;51.276;7.116;2023-04-15T00:42:29;4.13;;;1.38;;
20945;SDS011;10632;51.276;7.116;2023-04-15T00:44:56;5.47;;;1.45;;
20945;SDS011;10632;51.276;7.116;2023-04-15T00:47:24;4.40;;;1.35;;
20945;SDS011;10632;51.276;7.116;2023-04-15T00:49:54;5.45;;;1.63;;
20945;SDS011;10632;51.276;7.116;2023-04-15T00:52:22;4.50;;;1.45;;
20945;SDS011;10632;51.276;7.116;2023-04-15T00:54:48;8.15;;;1.90;;
20945;SDS011;10632;51.276;7.116;2023-04-15T00:57:25;3.38;;;1.30;;
20945;SDS011;10632;51.276;7.116;2023-04-15T00:59:53;6.70;;;1.70;;
20945;SDS011;10632;51.276;7.116;2023-04-15T01:02:21;3.55;;;1.55;;
20945;SDS011;10632;51.276;7.116;2023-04-15T01:04:49;3.78;;;1.30;;
20945;SDS011;10632;51.276;7.116;2023-04-15T01:07:16;4.80;;;1.63;;
20945;SDS011;10632;51.276;7.116;2023-04-15T01:09:43;3.67;;;1.63;;
20945;SDS011;10632;51.276;7.116;2023-04-15T01:12:13;5.80;;;1.25;;
20945;SDS011;10632;51.276;7.116;2023-04-15T01:14:43;6.18;;;1.70;;
20945;SDS011;10632;51.276;7.116;2023-04-15T01:17:10;2.55;;;1.27;;
20945;SDS011;10632;51.276;7.116;2023-04-15T01:19:37;3.45;;;1.50;;
20945;SDS011;10632;51.276;7.116;2023-04-15T01:22:04;3.67;;;1.70;;
20945;SDS011;10632;51.276;7.116;2023-04-15T01:24:31;6.32;;;2.08;;
20945;SDS011;10632;51.276;7.116;2023-04-15T01:27:00;4.05;;;1.75;;
20945;SDS011;10632;51.276;7.116;2023-04-15T01:29:27;5.60;;;1.60;;
20945;SDS011;10632;51.276;7.116;2023-04-15T01:31:56;4.97;;;1.67;;
20945;SDS011;10632;51.276;7.116;2023-04-15T01:34:23;3.75;;;1.67;;
20945;SDS011;10632;51.276;7.116;2023-04-15T01:36:50;6.18;;;1.60;;
20945;SDS011;10632;51.276;7.116;2023-04-15T01:39:17;4.03;;;1.60;;
20945;SDS011;10632;51.276;7.116;2023-04-15T01:41:44;5.22;;;1.70;;
20945;SDS011;10632;51.276;7.116;2023-04-15T01:44:13;3.53;;;1.75;;
20945;SDS011;10632;51.276;7.116;2023-04-15T01:46:40;5.80;;;1.98;;
20945;SDS011;10632;51.276;7.116;2023-04-15T01:49:07;3.90;;;1.58;;
20945;SDS011;10632;51.276;7.116;2023-04-15T01:51:34;2.58;;;1.40;;
20945;SDS011;10632;51.276;7.116;2023-04-15T01:54:01;4.63;;;1.77;;
20945;SDS011;10632;51.276;7.116;2023-04-15T01:56:28;5.90;;;1.67;;
20945;SDS011;10632;51.276;7.116;2023-04-15T01:58:54;4.70;;;1.88;;
20945;SDS011;10632;51.276;7.116;2023-04-15T02:01:23;4.30;;;1.77;;
20945;SDS011;10632;51.276;7.116;2023-04-15T02:03:50;3.90;;;1.65;;
20945;SDS011;10632;51.276;7.116;2023-04-15T02:06:17;4.43;;;1.85;;
20945;SDS011;10632;51.276;7.116;2023-04-15T02:08:44;5.68;;;1.73;;
20945;SDS011;10632;51.276;7.116;2023-04-15T02:11:10;3.63;;;1.45;;
20945;SDS011;10632;51.276;7.116;2023-04-15T02:13:38;6.30;;;1.60;;
20945;SDS011;10632;51.276;7.116;2023-04-15T02:16:13;3.78;;;1.45;;
20945;SDS011;10632;51.276;7.116;2023-04-15T02:18:44;3.72;;;1.50;;
20945;SDS011;10632;51.276;7.116;2023-04-15T02:21:11;15.90;;;2.45;;
20945;SDS011;10632;51.276;7.116;2023-04-15T02:23:38;6.00;;;1.92;;
20945;SDS011;10632;51.276;7.116;2023-04-15T02:26:05;4.13;;;1.60;;
20945;SDS011;10632;51.276;7.116;2023-04-15T02:28:33;3.70;;;1.45;;
20945;SDS011;10632;51.276;7.116;2023-04-15T02:31:03;3.13;;;1.52;;
20945;SDS011;10632;51.276;7.116;2023-04-15T02:33:30;4.85;;;1.85;;
20945;SDS011;10632;51.276;7.116;2023-04-15T02:35:59;3.85;;;1.58;;
20945;SDS011;10632;51.276;7.116;2023-04-15T02:38:26;5.95;;;1.77;;
20945;SDS011;10632;51.276;7.116;2023-04-15T02:40:55;4.13;;;1.58;;
20945;SDS011;10632;51.276;7.116;2023-04-15T02:43:22;5.05;;;1.67;;
20945;SDS011;10632;51.276;7.116;2023-04-15T02:45:49;7.00;;;1.85;;
20945;SDS011;10632;51.276;7.116;2023-04-15T02:48:16;5.38;;;1.63;;
20945;SDS011;10632;51.276;7.116;2023-04-15T02:50:44;5.15;;;1.95;;
20945;SDS011;10632;51.276;7.116;2023-04-15T02:53:13;4.53;;;1.73;;
20945;SDS011;10632;51.276;7.116;2023-04-15T02:55:41;8.77;;;1.90;;
20945;SDS011;10632;51.276;7.116;2023-04-15T02:58:08;4.70;;;1.93;;
20945;SDS011;10632;51.276;7.116;2023-04-15T03:00:35;5.97;;;2.10;;
20945;SDS011;10632;51.276;7.116;2023-04-15T03:03:02;7.87;;;1.43;;
20945;SDS011;10632;51.276;7.116;2023-04-15T03:05:30;5.65;;;1.70;;
20945;SDS011;10632;51.276;7.116;2023-04-15T03:08:00;6.55;;;2.08;;
20945;SDS011;10632;51.276;7.116;2023-04-15T03:10:28;7.05;;;2.13;;
20945;SDS011;10632;51.276;7.116;2023-04-15T03:12:55;6.00;;;2.08;;
20945;SDS011;10632;51.276;7.116;2023-04-15T03:15:22;5.53;;;2.17;;
20945;SDS011;10632;51.276;7.116;2023-04-15T03:17:49;5.10;;;1.83;;
20945;SDS011;10632;51.276;7.116;2023-04-15T03:20:16;5.07;;;1.70;;
20945;SDS011;10632;51.276;7.116;2023-04-15T03:22:43;5.50;;;2.08;;
20945;SDS011;10632;51.276;7.116;2023-04-15T03:25:09;4.68;;;1.75;;
20945;SDS011;10632;51.276;7.116;2023-04-15T03:27:38;3.87;;;1.73;;
20945;SDS011;10632;51.276;7.116;2023-04-15T03:30:05;3.70;;;1.75;;
20945;SDS011;10632;51.276;7.116;2023-04-15T03:32:33;4.82;;;1.90;;
20945;SDS011;10632;51.276;7.116;2023-04-15T03:35:00;6.50;;;1.98;;
20945;SDS011;10632;51.276;7.116;2023-04-15T03:37:27;6.25;;;1.63;;
20945;SDS011;10632;51.276;7.116;2023-04-15T03:39:53;7.18;;;2.53;;
20945;SDS011;10632;51.276;7.116;2023-04-15T03:42:20;5.60;;;2.05;;
20945;SDS011;10632;51.276;7.116;2023-04-15T03:44:49;8.45;;;2.00;;
20945;SDS011;10632;51.276;7.116;2023-04-15T03:47:16;4.97;;;1.83;;
20945;SDS011;10632;51.276;7.116;2023-04-15T03:49:43;6.05;;;2.17;;
20945;SDS011;10632;51.276;7.116;2023-04-15T03:52:10;8.02;;;2.53;;
20945;SDS011;10632;51.276;7.116;2023-04-15T03:54:37;8.05;;;2.17;;
20945;SDS011;10632;51.276;7.116;2023-04-15T03:57:04;5.68;;;2.25;;
20945;SDS011;10632;51.276;7.116;2023-04-15T03:59:31;9.23;;;2.53;;
20945;SDS011;10632;51.276;7.116;2023-04-15T04:01:59;7.45;;;2.38;;
20945;SDS011;10632;51.276;7.116;2023-04-15T04:04:26;14.13;;;2.70;;
20945;SDS011;10632;51.276;7.116;2023-04-15T04:06:53;5.90;;;2.23;;
20945;SDS011;10632;51.276;7.116;2023-04-15T04:09:20;7.32;;;2.55;;
20945;SDS011;10632;51.276;7.116;2023-04-15T04:11:47;12.82;;;2.58;;
20945;SDS011;10632;51.276;7.116;2023-04-15T04:14:14;7.00;;;2.28;;
20945;SDS011;10632;51.276;7.116;2023-04-15T04:16:41;8.00;;;2.00;;
20945;SDS011;10632;51.276;7.116;2023-04-15T04:19:10;5.85;;;2.42;;
20945;SDS011;10632;51.276;7.116;2023-04-15T04:21:38;9.45;;;2.58;;
20945;SDS011;10632;51.276;7.116;2023-04-15T04:24:05;6.85;;;2.20;;
20945;SDS011;10632;51.276;7.116;2023-04-15T04:26:32;6.72;;;2.60;;
20945;SDS011;10632;51.276;7.116;2023-04-15T04:28:59;7.25;;;2.33;;
20945;SDS011;10632;51.276;7.116;2023-04-15T04:31:26;6.88;;;2.28;;
20945;SDS011;10632;51.276;7.116;2023-04-15T04:33:53;7.00;;;2.20;;
20945;SDS011;10632;51.276;7.116;2023-04-15T04:36:22;5.78;;;2.15;;
20945;SDS011;10632;51.276;7.116;2023-04-15T04:38:49;7.80;;;2.10;;
20945;SDS011;10632;51.276;7.116;2023-04-15T04:41:18;9.43;;;2.47;;
20945;SDS011;10632;51.276;7.116;2023-04-15T04:43:45;6.40;;;2.53;;
20945;SDS011;10632;51.276;7.116;2023-04-15T04:46:12;8.32;;;2.60;;
20945;SDS011;10632;51.276;7.116;2023-04-15T04:48:39;5.67;;;2.00;;
20945;SDS011;10632;51.276;7.116;2023-04-15T04:51:06;8.60;;;2.33;;
20945;SDS011;10632;51.276;7.116;2023-04-15T04:53:35;9.47;;;2.53;;
20945;SDS011;10632;51.276;7.116;2023-04-15T04:56:02;7.80;;;2.43;;
20945;SDS011;10632;51.276;7.116;2023-04-15T04:58:29;7.90;;;2.93;;
20945;SDS011;10632;51.276;7.116;2023-04-15T05:00:56;5.60;;;2.23;;
20945;SDS011;10632;51.276;7.116;2023-04-15T05:03:23;9.47;;;2.40;;
20945;SDS011;10632;51.276;7.116;2023-04-15T05:05:50;5.63;;;2.30;;
20945;SDS011;10632;51.276;7.116;2023-04-15T05:08:17;9.10;;;2.50;;
20945;SDS011;10632;51.276;7.116;2023-04-15T05:10:45;6.85;;;2.28;;
20945;SDS011;10632;51.276;7.116;2023-04-15T05:13:12;7.88;;;3.05;;
20945;SDS011;10632;51.276;7.116;2023-04-15T05:15:39;8.13;;;2.85;;
20945;SDS011;10632;51.276;7.116;2023-04-15T05:18:07;9.60;;;3.00;;
20945;SDS011;10632;51.276;7.116;2023-04-15T05:20:34;7.50;;;2.87;;
20945;SDS011;10632;51.276;7.116;2023-04-15T05:23:01;8.27;;;3.00;;
20945;SDS011;10632;51.276;7.116;2023-04-15T05:25:27;8.00;;;2.85;;
20945;SDS011;10632;51.276;7.116;2023-04-15T05:27:56;7.40;;;2.83;;
20945;SDS011;10632;51.276;7.116;2023-04-15T05:30:23;11.35;;;3.13;;
20945;SDS011;10632;51.276;7.116;2023-04-15T05:32:50;9.30;;;3.23;;
20945;SDS011;10632;51.276;7.116;2023-04-15T05:35:17;8.93;;;3.17;;
20945;SDS011;10632;51.276;7.116;2023-04-15T05:37:44;13.57;;;3.60;;
20945;SDS011;10632;51.276;7.116;2023-04-15T05:40:11;9.07;;;3.05;;
20945;SDS011;10632;51.276;7.116;2023-04-15T05:42:41;10.85;;;3.28;;
20945;SDS011;10632;51.276;7.116;2023-04-15T05:45:10;11.38;;;3.38;;
20945;SDS011;10632;51.276;7.116;2023-04-15T05:47:37;8.45;;;3.05;;
20945;SDS011;10632;51.276;7.116;2023-04-15T05:50:04;9.38;;;3.20;;
20945;SDS011;10632;51.276;7.116;2023-04-15T05:52:32;16.03;;;3.50;;
20945;SDS011;10632;51.276;7.116;2023-04-15T05:54:59;10.80;;;3.78;;
20945;SDS011;10632;51.276;7.116;2023-04-15T05:57:26;12.40;;;3.95;;
20945;SDS011;10632;51.276;7.116;2023-04-15T05:59:52;13.00;;;3.97;;
20945;SDS011;10632;51.276;7.116;2023-04-15T06:02:22;11.95;;;3.85;;
20945;SDS011;10632;51.276;7.116;2023-04-15T06:04:50;9.43;;;3.30;;
20945;SDS011;10632;51.276;7.116;2023-04-15T06:07:17;9.73;;;3.08;;
20945;SDS011;10632;51.276;7.116;2023-04-15T06:09:44;8.63;;;3.00;;
20945;SDS011;10632;51.276;7.116;2023-04-15T06:12:11;10.73;;;4.00;;
20945;SDS011;10632;51.276;7.116;2023-04-15T06:14:38;13.13;;;4.00;;
20945;SDS011;10632;51.276;7.116;2023-04-15T06:17:05;11.65;;;3.90;;
20945;SDS011;10632;51.276;7.116;2023-04-15T06:19:33;9.52;;;3.67;;
20945;SDS011;10632;51.276;7.116;2023-04-15T06:22:01;12.95;;;3.90;;
20945;SDS011;10632;51.276;7.116;2023-04-15T06:24:30;10.55;;;3.60;;
20945;SDS011;10632;51.276;7.116;2023-04-15T06:26:57;8.93;;;3.83;;
20945;SDS011;10632;51.276;7.116;2023-04-15T06:29:26;12.55;;;3.65;;
20945;SDS011;10632;51.276;7.116;2023-04-15T06:31:53;11.70;;;4.07;;
20945;SDS011;10632;51.276;7.116;2023-04-15T06:34:21;12.27;;;3.55;;
20945;SDS011;10632;51.276;7.116;2023-04-15T06:36:49;8.70;;;3.53;;
20945;SDS011;10632;51.276;7.116;2023-04-15T06:39:16;13.15;;;3.72;;
20945;SDS011;10632;51.276;7.116;2023-04-15T06:41:43;9.50;;;3.67;;
20945;SDS011;10632;51.276;7.116;2023-04-15T06:44:10;11.77;;;4.05;;
20945;SDS011;10632;51.276;7.116;2023-04-15T06:46:37;12.32;;;3.78;;
20945;SDS011;10632;51.276;7.116;2023-04-15T06:49:04;9.43;;;3.85;;
20945;SDS011;10632;51.276;7.116;2023-04-15T06:51:33;12.70;;;4.18;;
20945;SDS011;10632;51.276;7.116;2023-04-15T06:54:01;11.93;;;3.95;;
20945;SDS011;10632;51.276;7.116;2023-04-15T06:56:30;15.15;;;5.00;;
20945;SDS011;10632;51.276;7.116;2023-04-15T06:58:59;12.57;;;4.03;;
20945;SDS011;10632;51.276;7.116;2023-04-15T07:01:26;10.15;;;3.28;;
20945;SDS011;10632;51.276;7.116;2023-04-15T07:03:53;13.10;;;3.90;;
20945;SDS011;10632;51.276;7.116;2023-04-15T07:06:20;13.40;;;3.92;;
20945;SDS011;10632;51.276;7.116;2023-04-15T07:08:47;10.40;;;3.50;;
20945;SDS011;10632;51.276;7.116;2023-04-15T07:11:15;13.32;;;4.03;;
20945;SDS011;10632;51.276;7.116;2023-04-15T07:13:42;8.80;;;3.47;;
20945;SDS011;10632;51.276;7.116;2023-04-15T07:16:09;9.93;;;3.55;;
20945;SDS011;10632;51.276;7.116;2023-04-15T07:18:36;11.57;;;3.70;;
20945;SDS011;10632;51.276;7.116;2023-04-15T07:21:03;11.02;;;3.70;;
20945;SDS011;10632;51.276;7.116;2023-04-15T07:23:30;9.68;;;3.80;;
20945;SDS011;10632;51.276;7.116;2023-04-15T07:25:57;9.75;;;3.72;;
20945;SDS011;10632;51.276;7.116;2023-04-15T07:28:25;9.07;;;3.03;;
20945;SDS011;10632;51.276;7.116;2023-04-15T07:30:52;9.32;;;3.17;;
20945;SDS011;10632;51.276;7.116;2023-04-15T07:33:20;7.57;;;2.80;;
20945;SDS011;10632;51.276;7.116;2023-04-15T07:35:47;9.25;;;3.38;;
20945;SDS011;10632;51.276;7.116;2023-04-15T07:38:14;10.70;;;3.10;;
20945;SDS011;10632;51.276;7.116;2023-04-15T07:40:41;7.10;;;2.72;;
20945;SDS011;10632;51.276;7.116;2023-04-15T07:43:08;8.73;;;2.67;;
20945;SDS011;10632;51.276;7.116;2023-04-15T07:45:36;9.10;;;2.83;;
20945;SDS011;10632;51.276;7.116;2023-04-15T07:48:03;13.60;;;3.42;;
20945;SDS011;10632;51.276;7.116;2023-04-15T07:50:31;8.10;;;2.60;;
20945;SDS011;10632;51.276;7.116;2023-04-15T07:52:57;7.60;;;2.75;;
20945;SDS011;10632;51.276;7.116;2023-04-15T07:55:24;8.60;;;2.65;;
20945;SDS011;10632;51.276;7.116;2023-04-15T07:57:51;8.27;;;3.05;;
20945;SDS011;10632;51.276;7.116;2023-04-15T08:00:21;7.47;;;3.00;;
20945;SDS011;10632;51.276;7.116;2023-04-15T08:02:50;9.32;;;2.88;;
20945;SDS011;10632;51.276;7.116;2023-04-15T08:05:17;6.95;;;2.60;;
20945;SDS011;10632;51.276;7.116;2023-04-15T08:07:44;6.40;;;2.70;;
20945;SDS011;10632;51.276;7.116;2023-04-15T08:10:11;9.95;;;3.10;;
20945;SDS011;10632;51.276;7.116;2023-04-15T08:12:39;7.82;;;3.10;;
20945;SDS011;10632;51.276;7.116;2023-04-15T08:15:07;7.68;;;2.63;;
20945;SDS011;10632;51.276;7.116;2023-04-15T08:17:34;9.40;;;2.70;;
20945;SDS011;10632;51.276;7.116;2023-04-15T08:20:03;7.80;;;2.78;;
20945;SDS011;10632;51.276;7.116;2023-04-15T08:22:30;7.85;;;2.80;;
20945;SDS011;10632;51.276;7.116;2023-04-15T08:24:58;6.63;;;2.40;;
20945;SDS011;10632;51.276;7.116;2023-04-15T08:27:25;9.25;;;2.92;;
20945;SDS011;10632;51.276;7.116;2023-04-15T08:29:52;9.10;;;2.70;;
20945;SDS011;10632;51.276;7.116;2023-04-15T08:32:20;7.82;;;3.10;;
20945;SDS011;10632;51.276;7.116;2023-04-15T08:34:47;9.02;;;3.25;;
20945;SDS011;10632;51.276;7.116;2023-04-15T08:37:16;9.55;;;3.35;;
20945;SDS011;10632;51.276;7.116;2023-04-15T08:39:43;10.20;;;2.92;;
20945;SDS011;10632;51.276;7.116;2023-04-15T08:42:10;7.65;;;2.67;;
20945;SDS011;10632;51.276;7.116;2023-04-15T08:44:42;7.40;;;2.20;;
20945;SDS011;10632;51.276;7.116;2023-04-15T08:47:09;7.43;;;2.63;;
20945;SDS011;10632;51.276;7.116;2023-04-15T08:49:39;10.32;;;2.83;;
20945;SDS011;10632;51.276;7.116;2023-04-15T08:52:08;11.50;;;3.33;;
20945;SDS011;10632;51.276;7.116;2023-04-15T08:54:36;7.20;;;2.70;;
20945;SDS011;10632;51.276;7.116;2023-04-15T08:57:03;8.40;;;3.10;;
20945;SDS011;10632;51.276;7.116;2023-04-15T08:59:32;9.27;;;3.08;;
20945;SDS011;10632;51.276;7.116;2023-04-15T09:01:59;8.82;;;3.03;;
20945;SDS011;10632;51.276;7.116;2023-04-15T09:04:27;9.50;;;3.15;;
20945;SDS011;10632;51.276;7.116;2023-04-15T09:06:55;8.75;;;3.17;;
20945;SDS011;10632;51.276;7.116;2023-04-15T09:09:22;7.45;;;2.90;;
20945;SDS011;10632;51.276;7.116;2023-04-15T09:11:50;9.88;;;3.13;;
20945;SDS011;10632;51.276;7.116;2023-04-15T09:14:17;8.68;;;2.88;;
20945;SDS011;10632;51.276;7.116;2023-04-15T09:16:57;6.57;;;2.40;;
20945;SDS011;10632;51.276;7.116;2023-04-15T09:19:24;4.93;;;2.00;;
20945;SDS011;10632;51.276;7.116;2023-04-15T09:21:52;4.45;;;1.80;;
20945;SDS011;10632;51.276;7.116;2023-04-15T09:24:20;5.15;;;2.08;;
20945;SDS011;10632;51.276;7.116;2023-04-15T09:26:47;5.03;;;1.92;;
20945;SDS011;10632;51.276;7.116;2023-04-15T09:29:19;6.95;;;1.73;;
20945;SDS011;10632;51.276;7.116;2023-04-15T09:31:55;6.07;;;2.20;;
20945;SDS011;10632;51.276;7.116;2023-04-15T09:34:24;4.93;;;2.05;;
20945;SDS011;10632;51.276;7.116;2023-04-15T09:37:00;6.35;;;2.22;;
20945;SDS011;10632;51.276;7.116;2023-04-15T09:39:29;5.70;;;2.17;;
20945;SDS011;10632;51.276;7.116;2023-04-15T09:42:12;5.88;;;2.35;;
20945;SDS011;10632;51.276;7.116;2023-04-15T09:44:39;5.30;;;2.25;;
20945;SDS011;10632;51.276;7.116;2023-04-15T09:47:06;6.13;;;2.28;;
20945;SDS011;10632;51.276;7.116;2023-04-15T09:49:33;8.18;;;2.60;;
20945;SDS011;10632;51.276;7.116;2023-04-15T09:52:00;6.72;;;2.65;;
20945;SDS011;10632;51.276;7.116;2023-04-15T09:54:37;7.45;;;2.78;;
20945;SDS011;10632;51.276;7.116;2023-04-15T09:57:04;6.50;;;2.55;;
20945;SDS011;10632;51.276;7.116;2023-04-15T09:59:33;5.40;;;2.35;;
20945;SDS011;10632;51.276;7.116;2023-04-15T10:02:01;6.18;;;2.40;;
20945;SDS011;10632;51.276;7.116;2023-04-15T10:04:30;6.05;;;2.28;;
20945;SDS011;10632;51.276;7.116;2023-04-15T10:07:01;4.93;;;2.00;;
20945;SDS011;10632;51.276;7.116;2023-04-15T10:09:30;5.15;;;1.75;;
20945;SDS011;10632;51.276;7.116;2023-04-15T10:11:58;5.20;;;2.17;;
20945;SDS011;10632;51.276;7.116;2023-04-15T10:14:26;6.60;;;2.60;;
20945;SDS011;10632;51.276;7.116;2023-04-15T10:16:58;6.70;;;2.53;;
20945;SDS011;10632;51.276;7.116;2023-04-15T10:19:27;6.50;;;2.80;;
20945;SDS011;10632;51.276;7.116;2023-04-15T10:21:58;6.47;;;2.30;;
20945;SDS011;10632;51.276;7.116;2023-04-15T10:24:25;5.63;;;2.42;;
20945;SDS011;10632;51.276;7.116;2023-04-15T10:26:53;10.10;;;2.70;;
20945;SDS011;10632;51.276;7.116;2023-04-15T10:29:22;6.32;;;2.88;;
20945;SDS011;10632;51.276;7.116;2023-04-15T10:31:50;6.50;;;2.60;;
20945;SDS011;10632;51.276;7.116;2023-04-15T10:34:21;7.45;;;2.55;;
20945;SDS011;10632;51.276;7.116;2023-04-15T10:36:49;5.82;;;2.38;;
20945;SDS011;10632;51.276;7.116;2023-04-15T10:42:07;7.03;;;2.35;;
20945;SDS011;10632;51.276;7.116;2023-04-15T10:44:35;8.10;;;2.58;;
20945;SDS011;10632;51.276;7.116;2023-04-15T10:47:05;5.63;;;2.40;;
20945;SDS011;10632;51.276;7.116;2023-04-15T10:49:42;6.55;;;2.33;;
20945;SDS011;10632;51.276;7.116;2023-04-15T10:52:11;6.57;;;2.80;;
20945;SDS011;10632;51.276;7.116;2023-04-15T10:54:39;5.72;;;2.55;;
20945;SDS011;10632;51.276;7.116;2023-04-15T10:57:07;6.03;;;2.60;;
20945;SDS011;10632;51.276;7.116;2023-04-15T11:00:01;6.22;;;2.30;;
20945;SDS011;10632;51.276;7.116;2023-04-15T11:02:39;6.80;;;2.58;;
20945;SDS011;10632;51.276;7.116;2023-04-15T11:05:09;8.32;;;2.50;;
20945;SDS011;10632;51.276;7.116;2023-04-15T11:07:38;6.18;;;2.67;;
20945;SDS011;10632;51.276;7.116;2023-04-15T11:13:16;5.50;;;2.20;;
20945;SDS011;10632;51.276;7.116;2023-04-15T11:15:46;7.65;;;2.30;;
20945;SDS011;10632;51.276;7.116;2023-04-15T11:18:15;6.72;;;2.35;;
20945;SDS011;10632;51.276;7.116;2023-04-15T11:20:45;5.65;;;2.22;;
20945;SDS011;10632;51.276;7.116;2023-04-15T11:23:14;5.97;;;2.47;;
20945;SDS011;10632;51.276;7.116;2023-04-15T11:25:43;6.10;;;2.20;;
20945;SDS011;10632;51.276;7.116;2023-04-15T11:28:10;7.18;;;2.03;;
20945;SDS011;10632;51.276;7.116;2023-04-15T11:30:38;6.57;;;2.60;;
20945;SDS011;10632;51.276;7.116;2023-04-15T11:33:07;6.60;;;2.50;;
20945;SDS011;10632;51.276;7.116;2023-04-15T11:35:36;6.25;;;2.58;;
20945;SDS011;10632;51.276;7.116;2023-04-15T11:38:07;6.78;;;2.05;;
20945;SDS011;10632;51.276;7.116;2023-04-15T11:40:36;4.53;;;2.08;;
20945;SDS011;10632;51.276;7.116;2023-04-15T11:43:04;5.75;;;2.38;;
20945;SDS011;10632;51.276;7.116;2023-04-15T11:45:32;7.55;;;2.20;;
20945;SDS011;10632;51.276;7.116;2023-04-15T11:48:09;6.40;;;2.30;;
20945;SDS011;10632;51.276;7.116;2023-04-15T11:50:37;8.75;;;2.30;;
20945;SDS011;10632;51.276;7.116;2023-04-15T11:53:07;6.45;;;2.58;;
20945;SDS011;10632;51.276;7.116;2023-04-15T11:55:42;6.38;;;2.38;;
20945;SDS011;10632;51.276;7.116;2023-04-15T11:58:11;6.13;;;2.40;;
20945;SDS011;10632;51.276;7.116;2023-04-15T12:00:40;7.63;;;2.45;;
20945;SDS011;10632;51.276;7.116;2023-04-15T12:03:21;6.85;;;2.70;;
20945;SDS011;10632;51.276;7.116;2023-04-15T12:06:07;6.38;;;2.67;;
20945;SDS011;10632;51.276;7.116;2023-04-15T12:08:56;6.32;;;2.90;;
20945;SDS011;10632;51.276;7.116;2023-04-15T12:11:29;5.68;;;2.30;;
20945;SDS011;10632;51.276;7.116;2023-04-15T12:13:58;6.72;;;2.70;;
20945;SDS011;10632;51.276;7.116;2023-04-15T12:16:28;5.40;;;2.20;;
20945;SDS011;10632;51.276;7.116;2023-04-15T12:18:56;6.47;;;2.55;;
20945;SDS011;10632;51.276;7.116;2023-04-15T12:21:32;8.20;;;2.67;;
20945;SDS011;10632;51.276;7.116;2023-04-15T12:24:02;5.00;;;2.10;;
20945;SDS011;10632;51.276;7.116;2023-04-15T12:26:32;6.90;;;2.50;;
20945;SDS011;10632;51.276;7.116;2023-04-15T12:29:01;9.85;;;2.70;;
20945;SDS011;10632;51.276;7.116;2023-04-15T12:31:28;7.38;;;2.83;;
20945;SDS011;10632;51.276;7.116;2023-04-15T12:33:55;7.72;;;2.58;;
20945;SDS011;10632;51.276;7.116;2023-04-15T12:36:23;7.10;;;2.83;;
20945;SDS011;10632;51.276;7.116;2023-04-15T12:38:50;5.88;;;2.42;;
20945;SDS011;10632;51.276;7.116;2023-04-15T12:41:18;7.20;;;2.70;;
20945;SDS011;10632;51.276;7.116;2023-04-15T12:43:46;7.90;;;2.92;;
20945;SDS011;10632;51.276;7.116;2023-04-15T12:46:13;7.72;;;2.70;;
20945;SDS011;10632;51.276;7.116;2023-04-15T12:48:41;8.63;;;2.47;;
20945;SDS011;10632;51.276;7.116;2023-04-15T12:51:08;5.85;;;2.72;;
20945;SDS011;10632;51.276;7.116;2023-04-15T12:53:35;6.30;;;2.33;;
20945;SDS011;10632;51.276;7.116;2023-04-15T12:56:02;5.85;;;2.55;;
20945;SDS011;10632;51.276;7.116;2023-04-15T12:58:31;7.47;;;2.13;;
20945;SDS011;10632;51.276;7.116;2023-04-15T13:00:58;5.88;;;2.22;;
20945;SDS011;10632;51.276;7.116;2023-04-15T13:03:25;6.95;;;2.28;;
20945;SDS011;10632;51.276;7.116;2023-04-15T13:05:54;6.10;;;2.20;;
20945;SDS011;10632;51.276;7.116;2023-04-15T13:08:22;6.32;;;2.05;;
20945;SDS011;10632;51.276;7.116;2023-04-15T13:10:49;5.85;;;2.10;;
20945;SDS011;10632;51.276;7.116;2023-04-15T13:13:16;5.68;;;2.33;;
20945;SDS011;10632;51.276;7.116;2023-04-15T13:15:44;8.73;;;2.90;;
20945;SDS011;10632;51.276;7.116;2023-04-15T13:18:11;7.85;;;3.00;;
20945;SDS011;10632;51.276;7.116;2023-04-15T13:20:38;7.93;;;2.72;;
20945;SDS011;10632;51.276;7.116;2023-04-15T13:23:05;7.90;;;2.58;;
20945;SDS011;10632;51.276;7.116;2023-04-15T13:25:32;6.88;;;3.00;;
20945;SDS011;10632;51.276;7.116;2023-04-15T13:27:59;7.85;;;3.33;;
20945;SDS011;10632;51.276;7.116;2023-04-15T13:30:26;6.53;;;2.65;;
20945;SDS011;10632;51.276;7.116;2023-04-15T13:32:54;5.63;;;2.35;;
20945;SDS011;10632;51.276;7.116;2023-04-15T13:35:21;7.22;;;2.50;;
20945;SDS011;10632;51.276;7.116;2023-04-15T13:37:48;7.18;;;2.65;;
20945;SDS011;10632;51.276;7.116;2023-04-15T13:40:15;7.63;;;3.17;;
20945;SDS011;10632;51.276;7.116;2023-04-15T13:42:42;7.07;;;2.90;;
20945;SDS011;10632;51.276;7.116;2023-04-15T13:45:10;8.07;;;2.75;;
20945;SDS011;10632;51.276;7.116;2023-04-15T13:47:37;10.48;;;2.80;;
20945;SDS011;10632;51.276;7.116;2023-04-15T13:50:05;8.68;;;2.65;;
20945;SDS011;10632;51.276;7.116;2023-04-15T13:52:33;7.45;;;2.55;;
20945;SDS011;10632;51.276;7.116;2023-04-15T13:54:59;8.98;;;2.67;;
20945;SDS011;10632;51.276;7.116;2023-04-15T13:57:27;9.95;;;3.10;;
20945;SDS011;10632;51.276;7.116;2023-04-15T13:59:56;5.75;;;2.55;;
20945;SDS011;10632;51.276;7.116;2023-04-15T14:02:23;6.22;;;2.60;;
20945;SDS011;10632;51.276;7.116;2023-04-15T14:04:50;6.00;;;2.25;;
20945;SDS011;10632;51.276;7.116;2023-04-15T14:07:18;9.45;;;2.97;;
20945;SDS011;10632;51.276;7.116;2023-04-15T14:09:45;10.48;;;3.17;;
20945;SDS011;10632;51.276;7.116;2023-04-15T14:12:13;8.98;;;2.95;;
20945;SDS011;10632;51.276;7.116;2023-04-15T14:14:40;8.38;;;3.10;;
20945;SDS011;10632;51.276;7.116;2023-04-15T14:17:07;8.30;;;2.80;;
20945;SDS011;10632;51.276;7.116;2023-04-15T14:19:34;7.15;;;2.70;;
20945;SDS011;10632;51.276;7.116;2023-04-15T14:22:01;8.77;;;3.28;;
20945;SDS011;10632;51.276;7.116;2023-04-15T14:24:29;8.68;;;3.28;;
20945;SDS011;10632;51.276;7.116;2023-04-15T14:26:57;7.72;;;3.08;;
20945;SDS011;10632;51.276;7.116;2023-04-15T14:29:23;10.63;;;3.25;;
20945;SDS011;10632;51.276;7.116;2023-04-15T14:31:50;7.30;;;2.72;;
20945;SDS011;10632;51.276;7.116;2023-04-15T14:34:17;7.28;;;2.80;;
20945;SDS011;10632;51.276;7.116;2023-04-15T14:36:46;7.70;;;3.10;;
20945;SDS011;10632;51.276;7.116;2023-04-15T14:39:13;6.30;;;2.40;;
20945;SDS011;10632;51.276;7.116;2023-04-15T14:41:41;7.15;;;2.65;;
20945;SDS011;10632;51.276;7.116;2023-04-15T14:44:08;6.13;;;2.45;;
20945;SDS011;10632;51.276;7.116;2023-04-15T14:46:35;7.93;;;2.67;;
20945;SDS011;10632;51.276;7.116;2023-04-15T14:49:02;6.00;;;2.40;;
20945;SDS011;10632;51.276;7.116;2023-04-15T14:51:29;8.25;;;2.50;;
20945;SDS011;10632;51.276;7.116;2023-04-15T14:53:56;8.35;;;2.55;;
20945;SDS011;10632;51.276;7.116;2023-04-15T14:56:23;6.00;;;2.53;;